createdAt,value
2023-05-02T00:00:59.354Z,80.70068359
2023-05-02T00:02:31.602Z,80.29174805
2023-05-02T00:03:32.767Z,80.09033203
2023-05-02T00:04:34.256Z,80.39550781
2023-05-02T00:05:35.524Z,80.63964844
2023-05-02T00:06:37.027Z,80.59692383
2023-05-02T00:07:37.726Z,80.59692383
2023-05-02T00:08:39.312Z,80.70068359
2023-05-02T00:09:40.420Z,80.94482422
2023-05-02T00:10:41.162Z,80.90820313
2023-05-02T00:11:42.865Z,80.29174805
2023-05-02T00:12:44.296Z,80.09033203
2023-05-02T00:13:45.678Z,80.02319336
2023-05-02T00:14:47.119Z,80.23071289
2023-05-02T00:15:48.472Z,80.43212891
2023-05-02T00:16:49.292Z,80.53588867
2023-05-02T00:17:50.142Z,80.84106445
2023-05-02T00:18:50.734Z,81.04248047
2023-05-02T00:19:52.214Z,81.14624023
2023-05-02T00:20:53.576Z,81.04248047
2023-05-02T00:21:55.007Z,81.14624023
2023-05-02T00:22:55.786Z,81.35375977
2023-05-02T00:23:56.938Z,81.35375977
2023-05-02T00:24:58.470Z,81.49414063
2023-05-02T00:25:59.050Z,81.79931641
2023-05-02T00:27:31.296Z,82.00073242
2023-05-02T00:28:32.831Z,82.10449219
2023-05-02T00:29:34.354Z,82.3059082
2023-05-02T00:30:35.400Z,82.00073242
2023-05-02T00:31:37.190Z,82.00073242
2023-05-02T00:32:38.500Z,82.00073242
2023-05-02T00:33:40.019Z,82.00073242
2023-05-02T00:34:41.267Z,81.89697266
2023-05-02T00:35:42.761Z,82.00073242
2023-05-02T00:36:44.452Z,81.89697266
2023-05-02T00:37:45.837Z,81.69555664
2023-05-02T00:38:47.406Z,81.89697266
2023-05-02T00:39:48.754Z,81.89697266
2023-05-02T00:40:49.967Z,81.79931641
2023-05-02T00:41:51.459Z,81.79931641
2023-05-02T00:42:52.170Z,81.79931641
2023-05-02T00:43:53.964Z,81.59179688
2023-05-02T00:44:55.937Z,81.59179688
2023-05-02T00:45:57.461Z,81.69555664
2023-05-02T00:46:58.065Z,81.89697266
2023-05-02T00:47:59.424Z,81.59179688
2023-05-02T00:49:32.057Z,81.49414063
2023-05-02T00:50:33.285Z,81.49414063
2023-05-02T00:51:34.712Z,81.69555664
2023-05-02T00:52:36.104Z,81.79931641
2023-05-02T00:53:36.799Z,82.00073242
2023-05-02T00:54:37.500Z,82.00073242
2023-05-02T00:55:38.080Z,82.10449219
2023-05-02T00:56:39.174Z,82.00073242
2023-05-02T00:57:40.986Z,82.10449219
2023-05-02T00:58:42.535Z,82.10449219
2023-05-02T00:59:43.954Z,82.20825195
2023-05-02T01:00:45.201Z,82.00073242
2023-05-02T01:01:46.450Z,81.69555664
2023-05-02T01:02:48.145Z,81.79931641
2023-05-02T01:03:48.832Z,81.69555664
2023-05-02T01:04:50.346Z,82.00073242
2023-05-02T01:05:51.678Z,81.69555664
2023-05-02T01:06:54.020Z,81.89697266
2023-05-02T01:07:54.735Z,82.00073242
2023-05-02T01:08:56.336Z,82.10449219
2023-05-02T01:09:58.097Z,82.10449219
2023-05-02T01:10:58.921Z,82.24487305
2023-05-02T01:12:00.011Z,82.24487305
2023-05-02T15:30:24.661Z,30.9753418
2023-05-02T15:31:26.060Z,30.37109375
2023-05-02T15:32:27.569Z,30.1574707
2023-05-02T15:33:29.538Z,29.55322266
2023-05-02T15:34:30.046Z,30.04150391
2023-05-02T15:35:31.562Z,29.94384766
2023-05-02T15:36:32.880Z,30.04150391
2023-05-02T15:37:48.609Z,29.93164063
2023-05-02T15:39:37.359Z,30.11474609
2023-05-02T15:40:39.039Z,30.55419922
2023-05-02T15:41:40.592Z,30.43823242
2023-05-02T15:42:42.365Z,30.24291992
2023-05-02T15:43:43.539Z,29.63256836
2023-05-02T15:44:44.187Z,29.63256836
2023-05-02T15:45:45.659Z,29.13208008
2023-05-02T15:46:47.257Z,29.13208008
2023-05-02T15:47:47.683Z,29.21142578
2023-05-02T15:48:48.486Z,29.19921875
2023-05-02T15:49:49.787Z,28.9855957
2023-05-02T15:50:51.268Z,28.48510742
2023-05-02T15:51:53.044Z,28.18603516
2023-05-02T15:53:24.902Z,28.17382813
2023-05-02T15:54:25.617Z,27.97851563
2023-05-02T15:55:26.155Z,27.67333984
2023-05-02T15:56:27.370Z,27.47192383
2023-05-02T15:57:28.759Z,27.17895508
2023-05-02T15:58:30.053Z,27.27661133
2023-05-02T15:59:31.788Z,27.68554688
2023-05-02T16:00:32.550Z,28.62548828
2023-05-02T16:01:33.749Z,29.22973633
2023-05-02T16:02:34.998Z,29.01611328
2023-05-02T16:03:36.513Z,29.21142578
2023-05-02T16:04:37.953Z,30.05981445
2023-05-02T16:05:39.284Z,31.40258789
2023-05-02T16:06:40.926Z,31.90917969
2023-05-02T16:07:42.318Z,31.69555664
2023-05-02T16:08:43.576Z,31.93969727
2023-05-02T16:09:45.025Z,33.16040039
2023-05-02T16:10:46.566Z,33.17260742
2023-05-02T16:11:47.066Z,33.72192383
2023-05-02T16:12:48.247Z,34.44824219
2023-05-02T16:13:49.805Z,35.26000977
2023-05-02T16:14:51.375Z,35.77270508
2023-05-02T16:15:52.604Z,34.75952148
2023-05-02T16:17:23.457Z,35.50415039
2023-05-02T16:18:25.027Z,36.6394043
2023-05-02T16:19:25.585Z,37.45117188
2023-05-02T16:20:27.034Z,38.18359375
2023-05-02T16:21:27.588Z,38.80004883
2023-05-02T16:22:28.841Z,39.03808594
2023-05-02T16:23:29.370Z,39.45922852
2023-05-02T16:24:31.325Z,39.15405273
2023-05-02T16:25:32.485Z,39.27612305
2023-05-02T16:26:33.921Z,39.2578125
2023-05-02T16:27:35.049Z,39.55688477
2023-05-02T16:28:36.544Z,38.70239258
2023-05-02T16:29:38.026Z,37.54882813
2023-05-02T16:30:39.577Z,37.48779297
2023-05-02T16:31:43.621Z,38.01879883
2023-05-02T16:32:42.624Z,38.53759766
2023-05-02T16:33:43.182Z,39.15405273
2023-05-02T16:34:44.817Z,39.27612305
2023-05-02T16:35:46.367Z,39.29443359
2023-05-02T16:36:47.928Z,39.41040039
2023-05-02T16:37:49.558Z,39.83154297
2023-05-02T16:38:50.024Z,39.84985352
2023-05-02T16:39:51.570Z,40.47241211
2023-05-02T16:41:24.555Z,40.99121094
2023-05-02T16:42:25.226Z,41.49169922
2023-05-02T16:43:26.865Z,40.78979492
2023-05-02T16:44:28.289Z,40.99121094
2023-05-02T16:45:28.843Z,41.00952148
2023-05-02T16:46:30.375Z,41.2109375
2023-05-02T16:47:31.858Z,41.1315918
2023-05-02T16:48:33.135Z,41.53442383
2023-05-02T16:49:34.542Z,41.63208008
2023-05-02T16:50:35.126Z,41.08886719
2023-05-02T16:51:36.567Z,40.25268555
2023-05-02T16:52:38.211Z,40.3503418
2023-05-02T16:53:39.452Z,39.83154297
2023-05-02T16:54:40.849Z,39.21508789
2023-05-02T16:55:42.052Z,38.81225586
2023-05-02T16:56:43.754Z,39.21508789
2023-05-02T16:57:45.089Z,39.63012695
2023-05-02T16:58:46.621Z,40.05126953
2023-05-02T16:59:47.185Z,40.45410156
2023-05-02T17:00:48.445Z,40.25268555
2023-05-02T17:01:49.976Z,40.77148438
2023-05-02T17:02:51.723Z,41.51000977
2023-05-02T17:04:23.681Z,41.51000977
2023-05-02T17:05:24.818Z,41.93115234
2023-05-02T17:06:26.445Z,41.93115234
2023-05-02T17:07:27.853Z,42.35229492
2023-05-02T17:08:29.253Z,42.55371094
2023-05-02T17:09:30.669Z,42.45605469
2023-05-02T17:10:31.259Z,42.77954102
2023-05-02T17:11:32.574Z,42.87719727
2023-05-02T17:12:34.069Z,42.87719727
2023-05-02T17:13:34.662Z,42.97485352
2023-05-02T17:14:36.047Z,43.17626953
2023-05-02T17:15:36.535Z,43.37768555
2023-05-02T17:16:37.827Z,43.07861328
2023-05-02T17:17:39.499Z,42.97485352
2023-05-02T17:18:40.010Z,43.2800293
2023-05-02T17:19:41.541Z,43.2800293
2023-05-02T17:20:42.797Z,43.56079102
2023-05-02T17:21:44.299Z,43.65844727
2023-05-02T17:22:45.769Z,43.65844727
2023-05-02T17:23:47.094Z,43.65844727
2023-05-02T17:24:48.592Z,43.45703125
2023-05-02T17:25:49.145Z,43.68286133
2023-05-02T17:26:50.517Z,44.07958984
2023-05-02T17:27:51.560Z,43.78051758
2023-05-02T17:29:23.383Z,44.10400391
2023-05-02T17:30:24.003Z,44.50683594
2023-05-02T17:31:25.506Z,44.50683594
2023-05-02T17:32:26.864Z,45.10498047
2023-05-02T17:33:28.417Z,45.22705078
2023-05-02T17:34:29.049Z,45.53222656
2023-05-02T17:35:29.663Z,45.4284668
2023-05-02T17:36:31.153Z,45.53222656
2023-05-02T17:37:32.526Z,45.93505859
2023-05-02T17:38:34.094Z,45.75195313
2023-05-02T17:39:35.562Z,46.15478516
2023-05-02T17:40:37.999Z,46.25854492
2023-05-02T17:41:37.483Z,46.25854492
2023-05-02T17:42:38.921Z,46.88110352
2023-05-02T17:43:40.069Z,47.08251953
2023-05-02T17:44:41.551Z,47.48535156
2023-05-02T17:45:43.131Z,47.88818359
2023-05-02T17:46:44.676Z,47.79052734
2023-05-02T17:47:46.066Z,48.21166992
2023-05-02T17:48:46.571Z,48.61450195
2023-05-02T17:50:18.530Z,48.23608398
2023-05-02T17:51:50.098Z,48.33984375
2023-05-02T17:52:51.621Z,48.9440918
2023-05-02T17:54:23.068Z,49.16381836
2023-05-02T17:55:23.542Z,49.26757813
2023-05-02T17:56:24.969Z,49.36523438
2023-05-02T17:57:26.323Z,49.67041016
2023-05-02T17:58:26.904Z,50.2746582
2023-05-02T17:59:28.301Z,49.87182617
2023-05-02T18:00:29.560Z,49.67041016
2023-05-02T18:01:31.116Z,49.87182617
2023-05-02T18:02:32.392Z,49.76806641
2023-05-02T18:03:33.853Z,49.29199219
2023-05-02T18:04:35.376Z,48.98681641
2023-05-02T18:05:36.531Z,48.88916016
2023-05-02T18:06:37.209Z,49.09057617
2023-05-02T18:07:38.297Z,49.38964844
2023-05-02T18:08:39.258Z,49.79248047
2023-05-02T18:09:40.588Z,50.01831055
2023-05-02T18:10:42.065Z,50.42114258
2023-05-02T18:11:42.503Z,51.02539063
2023-05-02T18:12:43.897Z,50.52490234
2023-05-02T18:13:45.254Z,51.42822266
2023-05-02T18:14:46.295Z,50.62255859
2023-05-02T18:15:47.861Z,50.42114258
2023-05-02T18:16:49.045Z,50.72631836
2023-05-02T18:17:50.623Z,50.92773438
2023-05-02T18:19:22.107Z,51.02539063
2023-05-02T18:20:23.289Z,51.02539063
2023-05-02T18:21:24.252Z,50.92773438
2023-05-02T18:22:24.776Z,51.02539063
2023-05-02T18:23:25.322Z,51.12915039
2023-05-02T18:24:25.910Z,51.45263672
2023-05-02T18:25:27.546Z,51.55639648
2023-05-02T18:26:29.026Z,51.45263672
2023-05-02T18:27:30.298Z,51.7578125
2023-05-02T18:28:31.610Z,51.66015625
2023-05-02T18:29:33.051Z,51.66015625
2023-05-02T18:30:34.594Z,51.45263672
2023-05-02T18:31:36.146Z,51.55639648
2023-05-02T18:32:37.167Z,51.2512207
2023-05-02T18:33:38.602Z,50.95214844
2023-05-02T23:05:29.022Z,76.18408203
2023-05-02T23:06:30.644Z,76.28173828
2023-05-02T23:07:32.022Z,76.48925781
2023-05-02T23:08:33.412Z,76.69067383
2023-05-02T23:09:34.943Z,76.79443359
2023-05-02T23:10:36.118Z,76.79443359
2023-05-02T23:11:37.951Z,76.48925781
2023-05-02T23:12:39.205Z,76.18408203
2023-05-02T23:13:39.830Z,76.08032227
2023-05-02T23:14:40.980Z,76.08032227
2023-05-02T23:15:41.719Z,76.18408203
2023-05-02T23:16:43.209Z,76.28173828
2023-05-02T23:17:44.691Z,76.08032227
2023-05-02T23:18:45.932Z,75.87890625
2023-05-02T23:20:17.778Z,75.87890625
2023-05-02T23:21:18.963Z,75.67138672
2023-05-02T23:22:20.639Z,75.77514648
2023-05-02T23:23:22.165Z,75.53710938
2023-05-02T23:24:22.721Z,75.57373047
2023-05-02T23:25:23.950Z,75.36621094
2023-05-02T23:26:25.356Z,75.26855469
2023-05-02T23:27:27.170Z,75.4699707
2023-05-02T23:28:27.805Z,75.06103516
2023-05-02T23:29:28.934Z,75.16479492
2023-05-02T23:30:30.111Z,75.06103516
2023-05-02T23:31:31.630Z,75.16479492
2023-05-02T23:32:32.327Z,75.16479492
2023-05-02T23:33:33.477Z,75.16479492
2023-05-02T23:34:34.097Z,75.16479492
2023-05-02T23:35:34.672Z,75.16479492
2023-05-02T23:36:36.108Z,75.06103516
2023-05-02T23:37:37.721Z,74.96337891
2023-05-02T23:38:38.344Z,74.85961914
2023-05-02T23:39:40.006Z,74.82299805
2023-05-02T23:40:41.159Z,74.10888672
2023-05-02T23:41:42.591Z,73.9074707
2023-05-02T23:42:44.219Z,73.80371094
2023-05-02T23:43:44.941Z,73.9074707
2023-05-02T23:44:46.956Z,74.01123047
2023-05-02T23:46:18.839Z,73.9074707
2023-05-02T23:47:19.893Z,73.9074707
2023-05-02T23:48:21.511Z,74.01123047
2023-05-02T23:49:22.981Z,74.21264648
2023-05-02T23:50:24.610Z,74.45068359
2023-05-02T23:51:25.897Z,74.55444336
2023-05-02T23:52:27.363Z,74.65209961
2023-05-02T23:53:28.984Z,74.65209961
2023-05-02T23:54:31.904Z,74.65209961
2023-05-02T23:55:31.853Z,74.51782227
2023-05-02T23:56:33.458Z,74.4140625
2023-05-02T23:57:34.992Z,74.4140625
2023-05-02T23:58:36.605Z,74.31640625
2023-05-02T23:59:38.007Z,74.4140625
